Time,TemperatureF,DewpointF,PressureIn,WindDirection,WindDirectionDegrees,WindSpeedMPH,WindSpeedGustMPH,Humidity,HourlyPrecipIn,Conditions,Clouds,dailyrainin,SoftwareType,DateUTC
2013-02-22 00:01:00,23.2,23.2,29.96,ENE,61,8.9,13.8,100,0.00,-SN,,0.00,WeatherDisplay:10.37,2013-02-22 06:01:00,
2013-02-22 00:06:00,23.1,23.1,29.95,ENE,57,10.7,17.3,100,0.00,-SN,,0.00,WeatherDisplay:10.37,2013-02-22 06:06:00,
2013-02-22 00:11:00,23.1,23.1,29.94,ENE,76,12.3,17.3,100,0.00,-SN,,0.00,WeatherDisplay:10.37,2013-02-22 06:11:00,
2013-02-22 00:16:00,23.0,23.0,29.94,ENE,65,9.1,12.7,100,0.00,-SN,,0.00,WeatherDisplay:10.37,2013-02-22 06:16:00,
2013-02-22 00:21:00,23.0,23.0,29.93,NNE,30,11.9,18.4,100,0.00,-SN,,0.00,WeatherDisplay:10.37,2013-02-22 06:21:00,
2013-02-22 00:26:00,22.9,22.9,29.93,NE,51,8.9,16.1,100,0.00,-SN,,0.00,WeatherDisplay:10.37,2013-02-22 06:26:00,
2013-02-22 00:31:00,22.9,22.9,29.93,ENE,57,8.4,13.8,100,0.00,-SN,,0.00,WeatherDisplay:10.37,2013-02-22 06:31:00,
2013-02-22 00:36:00,22.9,22.9,29.93,NE,34,8.5,15.0,100,0.00,-SN,,0.00,WeatherDisplay:10.37,2013-02-22 06:36:00,
2013-02-22 00:41:00,22.7,22.7,29.92,ENE,71,8.9,13.8,100,0.00,-SN,,0.00,WeatherDisplay:10.37,2013-02-22 06:41:00,
2013-02-22 00:46:00,22.8,22.8,29.92,ESE,109,7.2,11.5,100,0.00,-SN,,0.00,WeatherDisplay:10.37,2013-02-22 06:46:00,
2013-02-22 00:51:00,22.7,22.7,29.91,NE,51,10.8,17.3,100,0.00,-SN,,0.00,WeatherDisplay:10.37,2013-02-22 06:51:00,
2013-02-22 00:56:00,22.8,22.8,29.91,ENE,74,9.5,16.1,100,0.00,-SN,,0.00,WeatherDisplay:10.37,2013-02-22 06:56:00,
2013-02-22 01:01:00,22.6,22.6,29.90,ENE,61,10.0,19.6,100,0.00,OVC,,0.00,WeatherDisplay:10.37,2013-02-22 07:01:00,
2013-02-22 01:06:00,22.8,22.8,29.90,East,99,10.2,17.3,100,0.01,RA,,0.01,WeatherDisplay:10.37,2013-02-22 07:06:00,
2013-02-22 01:11:00,22.9,22.9,29.89,ENE,75,7.7,12.7,100,0.01,RA,,0.01,WeatherDisplay:10.37,2013-02-22 07:11:00,
2013-02-22 01:16:00,22.9,22.9,29.89,East,99,8.8,16.1,100,0.01,OVC,,0.01,WeatherDisplay:10.37,2013-02-22 07:16:00,
2013-02-22 01:21:00,22.8,22.8,29.89,NNE,30,8.5,16.1,100,0.01,OVC,,0.01,WeatherDisplay:10.37,2013-02-22 07:21:00,
2013-02-22 01:26:00,22.9,22.9,29.90,NE,41,9.0,15.0,100,0.02,RA,,0.02,WeatherDisplay:10.37,2013-02-22 07:26:00,
2013-02-22 01:31:00,22.9,22.9,29.90,ENE,69,8.9,16.1,100,0.02,RA,,0.02,WeatherDisplay:10.37,2013-02-22 07:31:00,
2013-02-22 01:36:00,22.8,22.8,29.90,ESE,116,8.8,16.1,100,0.02,OVC,,0.02,WeatherDisplay:10.37,2013-02-22 07:36:00,
2013-02-22 01:41:00,22.8,22.8,29.91,NE,54,8.7,13.8,100,0.02,OVC,,0.02,WeatherDisplay:10.37,2013-02-22 07:41:00,
2013-02-22 01:46:00,22.9,22.9,29.90,NE,40,7.9,12.7,100,0.02,OVC,,0.02,WeatherDisplay:10.37,2013-02-22 07:46:00,
2013-02-22 01:51:00,23.0,23.0,29.90,ESE,113,9.9,12.7,100,0.02,OVC,,0.02,WeatherDisplay:10.37,2013-02-22 07:51:00,
2013-02-22 01:56:00,22.8,22.8,29.89,ENE,67,9.1,15.0,100,0.03,RA,,0.03,WeatherDisplay:10.37,2013-02-22 07:56:00,
2013-02-22 02:01:00,22.9,22.9,29.89,East,82,8.4,15.0,100,0.03,-SN,,0.03,WeatherDisplay:10.37,2013-02-22 08:01:00,
2013-02-22 02:06:00,23.0,23.0,29.89,ENE,62,6.6,12.2,100,0.02,-SN,,0.03,WeatherDisplay:10.37,2013-02-22 08:06:00,
2013-02-22 02:11:00,22.8,22.8,29.89,ENE,62,7.6,10.4,100,0.02,-SN,,0.03,WeatherDisplay:10.37,2013-02-22 08:11:00,
2013-02-22 02:16:00,22.9,22.9,29.88,NNE,30,7.1,12.7,100,0.03,-SN,,0.04,WeatherDisplay:10.37,2013-02-22 08:16:00,
2013-02-22 02:21:00,22.9,22.9,29.88,NE,44,6.8,10.4,100,0.03,-SN,,0.04,WeatherDisplay:10.37,2013-02-22 08:21:00,
2013-02-22 02:26:00,22.8,22.8,29.88,ESE,103,8.7,18.4,100,0.02,-SN,,0.04,WeatherDisplay:10.37,2013-02-22 08:26:00,
2013-02-22 02:31:00,22.9,22.9,29.88,East,81,6.9,9.2,100,0.02,-SN,,0.04,WeatherDisplay:10.37,2013-02-22 08:31:00,
2013-02-22 02:36:00,22.9,22.9,29.88,East,82,8.4,12.7,100,0.03,-SN,,0.05,WeatherDisplay:10.37,2013-02-22 08:36:00,
2013-02-22 02:41:00,22.8,22.8,29.88,NE,36,6.8,12.7,100,0.03,-SN,,0.05,WeatherDisplay:10.37,2013-02-22 08:41:00,
2013-02-22 02:46:00,23.0,23.0,29.88,ENE,69,6.7,11.5,100,0.04,-SN,,0.06,WeatherDisplay:10.37,2013-02-22 08:46:00,
2013-02-22 02:51:00,22.6,22.6,29.88,ENE,69,8.5,13.8,100,0.04,-SN,,0.06,WeatherDisplay:10.37,2013-02-22 08:51:00,
2013-02-22 02:56:00,22.7,22.7,29.87,NE,55,5.5,8.1,100,0.03,-SN,,0.06,WeatherDisplay:10.37,2013-02-22 08:56:00,
2013-02-22 03:01:00,22.8,22.8,29.87,ESE,120,5.5,11.5,100,0.03,-SN,,0.07,WeatherDisplay:10.37,2013-02-22 09:01:00,
2013-02-22 03:06:00,22.7,22.7,29.87,ENE,76,8.3,10.4,100,0.04,-SN,,0.07,WeatherDisplay:10.37,2013-02-22 09:06:00,
2013-02-22 03:11:00,22.7,22.7,29.87,ENE,69,4.6,8.1,100,0.04,-SN,,0.07,WeatherDisplay:10.37,2013-02-22 09:11:00,
2013-02-22 03:16:00,22.8,22.8,29.86,ENE,64,6.1,10.4,100,0.04,-SN,,0.08,WeatherDisplay:10.37,2013-02-22 09:16:00,
2013-02-22 03:21:00,22.8,22.8,29.86,ENE,57,5.0,11.5,100,0.04,-SN,,0.08,WeatherDisplay:10.37,2013-02-22 09:21:00,
2013-02-22 03:26:00,22.8,22.8,29.86,ENE,71,3.7,4.8,100,0.04,-SN,,0.08,WeatherDisplay:10.37,2013-02-22 09:26:00,
2013-02-22 03:31:00,22.6,22.6,29.86,East,89,6.4,9.2,100,0.05,-SN,,0.09,WeatherDisplay:10.37,2013-02-22 09:31:00,
2013-02-22 03:36:00,22.7,22.7,29.85,ESE,112,7.6,10.4,100,0.04,-SN,,0.09,WeatherDisplay:10.37,2013-02-22 09:36:00,
2013-02-22 03:41:00,22.7,22.7,29.85,ESE,116,6.2,9.2,100,0.04,-SN,,0.09,WeatherDisplay:10.37,2013-02-22 09:41:00,
2013-02-22 03:46:00,22.7,22.7,29.85,East,86,5.4,10.4,100,0.03,-SN,,0.09,WeatherDisplay:10.37,2013-02-22 09:46:00,
2013-02-22 03:51:00,22.7,22.7,29.85,East,79,5.4,10.4,100,0.03,-SN,,0.09,WeatherDisplay:10.37,2013-02-22 09:51:00,
2013-02-22 03:56:00,22.8,22.8,29.85,East,85,4.5,8.1,100,0.03,-SN,,0.09,WeatherDisplay:10.37,2013-02-22 09:56:00,
2013-02-22 04:01:00,22.7,22.7,29.84,ESE,110,5.9,9.2,100,0.03,-SN,,0.09,WeatherDisplay:10.37,2013-02-22 10:01:00,
2013-02-22 04:06:00,22.7,22.7,29.84,ENE,68,4.4,6.9,100,0.02,-SN,,0.09,WeatherDisplay:10.37,2013-02-22 10:06:00,
2013-02-22 04:11:00,22.7,22.7,29.84,ESE,123,5.8,9.2,100,0.02,-SN,,0.09,WeatherDisplay:10.37,2013-02-22 10:11:00,
2013-02-22 04:16:00,22.9,22.9,29.84,East,89,4.0,5.8,100,0.01,-SN,,0.09,WeatherDisplay:10.37,2013-02-22 10:16:00,
2013-02-22 04:21:00,22.6,22.6,29.83,ESE,102,6.1,9.2,100,0.01,-SN,,0.09,WeatherDisplay:10.37,2013-02-22 10:21:00,
2013-02-22 04:26:00,22.6,22.6,29.83,ENE,61,5.4,10.4,100,0.01,-SN,,0.09,WeatherDisplay:10.37,2013-02-22 10:26:00,
2013-02-22 04:31:00,22.8,22.8,29.83,ESE,122,5.8,9.4,100,0.00,-SN,,0.09,WeatherDisplay:10.37,2013-02-22 10:31:00,
2013-02-22 04:36:00,22.8,22.8,29.83,ENE,69,6.1,9.2,100,0.00,-SN,,0.09,WeatherDisplay:10.37,2013-02-22 10:36:00,
2013-02-22 04:41:00,23.0,23.0,29.83,ENE,62,4.0,6.9,100,0.00,-SN,,0.09,WeatherDisplay:10.37,2013-02-22 10:41:00,
2013-02-22 04:46:00,23.0,23.0,29.83,NE,52,5.6,11.1,100,0.00,-SN,,0.09,WeatherDisplay:10.37,2013-02-22 10:46:00,
2013-02-22 04:51:00,23.0,23.0,29.83,East,96,7.1,9.2,100,0.00,-SN,,0.09,WeatherDisplay:10.37,2013-02-22 10:51:00,
2013-02-22 04:56:00,22.9,22.9,29.82,East,85,5.8,8.1,100,0.00,-SN,,0.09,WeatherDisplay:10.37,2013-02-22 10:56:00,
2013-02-22 05:01:00,23.1,23.1,29.82,East,99,5.7,8.8,100,0.00,-SN,,0.09,WeatherDisplay:10.37,2013-02-22 11:01:00,
2013-02-22 05:06:00,23.1,23.1,29.82,East,85,5.3,8.1,100,0.00,-SN,,0.09,WeatherDisplay:10.37,2013-02-22 11:06:00,
2013-02-22 05:11:00,23.0,23.0,29.82,East,79,7.8,12.7,100,0.00,-SN,,0.09,WeatherDisplay:10.37,2013-02-22 11:11:00,
2013-02-22 05:16:00,23.2,23.2,29.82,ESE,108,5.5,10.4,100,0.00,-SN,,0.09,WeatherDisplay:10.37,2013-02-22 11:16:00,
2013-02-22 05:21:00,23.2,23.2,29.82,East,91,6.4,9.2,100,0.00,-SN,,0.09,WeatherDisplay:10.37,2013-02-22 11:21:00,
2013-02-22 05:26:00,23.2,23.2,29.81,NE,50,6.6,11.5,100,0.00,-SN,,0.09,WeatherDisplay:10.37,2013-02-22 11:26:00,
2013-02-22 05:31:00,23.3,23.3,29.81,ENE,75,6.2,9.2,100,0.00,-SN,,0.09,WeatherDisplay:10.37,2013-02-22 11:31:00,
2013-02-22 05:36:00,23.3,23.3,29.81,East,100,7.8,12.7,100,0.00,-SN,,0.09,WeatherDisplay:10.37,2013-02-22 11:36:00,
2013-02-22 05:41:00,23.5,23.5,29.81,ESE,105,3.5,6.9,100,0.00,-SN,,0.09,WeatherDisplay:10.37,2013-02-22 11:41:00,
2013-02-22 05:46:00,23.6,23.6,29.81,East,82,2.7,3.5,100,0.00,-SN,,0.09,WeatherDisplay:10.37,2013-02-22 11:46:00,
2013-02-22 05:51:00,23.4,23.4,29.81,ESE,108,6.4,8.6,100,0.00,-SN,,0.09,WeatherDisplay:10.37,2013-02-22 11:51:00,
2013-02-22 05:56:00,23.6,23.6,29.81,East,95,6.0,9.2,100,0.00,-SN,,0.09,WeatherDisplay:10.37,2013-02-22 11:56:00,
2013-02-22 06:01:00,23.6,23.6,29.80,ESE,119,4.3,6.9,100,0.00,OVC,,0.09,WeatherDisplay:10.37,2013-02-22 12:01:00,
2013-02-22 06:06:00,23.7,23.7,29.81,East,86,4.9,9.2,100,0.00,OVC,,0.09,WeatherDisplay:10.37,2013-02-22 12:06:00,
2013-02-22 06:11:00,23.8,23.8,29.80,East,82,5.2,6.9,100,0.00,OVC,,0.09,WeatherDisplay:10.37,2013-02-22 12:11:00,
2013-02-22 06:16:00,23.9,23.9,29.80,ESE,103,4.4,6.9,100,0.00,OVC,,0.09,WeatherDisplay:10.37,2013-02-22 12:16:00,
2013-02-22 06:21:00,23.8,23.8,29.80,ESE,115,4.6,6.9,100,0.00,OVC,,0.09,WeatherDisplay:10.37,2013-02-22 12:21:00,
2013-02-22 06:26:00,24.0,24.0,29.80,ESE,116,5.4,8.1,100,0.00,OVC,,0.09,WeatherDisplay:10.37,2013-02-22 12:26:00,
2013-02-22 06:31:00,23.8,23.8,29.80,East,82,4.7,8.9,100,0.00,OVC,,0.09,WeatherDisplay:10.37,2013-02-22 12:31:00,
2013-02-22 06:36:00,24.1,24.1,29.80,ESE,103,5.5,8.1,100,0.00,OVC,,0.09,WeatherDisplay:10.37,2013-02-22 12:36:00,
2013-02-22 06:41:00,24.1,24.1,29.80,SE,143,4.4,9.2,100,0.00,OVC,,0.09,WeatherDisplay:10.37,2013-02-22 12:41:00,
2013-02-22 06:46:00,24.2,24.2,29.80,East,99,5.5,8.1,100,0.00,OVC,,0.09,WeatherDisplay:10.37,2013-02-22 12:46:00,
2013-02-22 06:51:00,24.3,24.3,29.79,East,92,5.8,9.2,100,0.00,OVC,,0.09,WeatherDisplay:10.37,2013-02-22 12:51:00,
2013-02-22 06:56:00,24.3,24.3,29.80,ESE,119,4.9,8.1,100,0.00,OVC,,0.09,WeatherDisplay:10.37,2013-02-22 12:56:00,
2013-02-22 07:01:00,24.4,24.4,29.79,SE,144,5.6,9.2,100,0.00,-SN,,0.09,WeatherDisplay:10.37,2013-02-22 13:01:00,
2013-02-22 07:06:00,24.3,24.3,29.79,ESE,113,5.8,10.4,100,0.00,-SN,,0.09,WeatherDisplay:10.37,2013-02-22 13:06:00,
2013-02-22 07:11:00,24.3,24.3,29.79,East,85,4.5,6.9,100,0.00,-SN,,0.09,WeatherDisplay:10.37,2013-02-22 13:11:00,
2013-02-22 07:16:00,24.4,24.4,29.79,East,96,6.5,11.5,100,0.00,-SN,,0.09,WeatherDisplay:10.37,2013-02-22 13:16:00,
2013-02-22 07:21:00,24.5,24.5,29.79,East,84,3.9,4.6,100,0.00,-SN,,0.09,WeatherDisplay:10.37,2013-02-22 13:21:00,
2013-02-22 07:26:00,24.5,24.5,29.79,SE,129,5.0,9.2,100,0.00,-SN,,0.09,WeatherDisplay:10.37,2013-02-22 13:26:00,
2013-02-22 07:31:00,24.6,24.6,29.78,SE,146,5.4,9.2,100,0.00,-SN,,0.09,WeatherDisplay:10.37,2013-02-22 13:31:00,
2013-02-22 07:36:00,24.6,24.6,29.78,ESE,113,5.1,8.1,100,0.00,-SN,,0.09,WeatherDisplay:10.37,2013-02-22 13:36:00,
2013-02-22 07:41:00,24.7,24.7,29.78,East,100,3.6,5.8,100,0.00,-SN,,0.09,WeatherDisplay:10.37,2013-02-22 13:41:00,
2013-02-22 07:46:00,24.7,24.7,29.78,ENE,61,5.7,9.2,100,0.00,-SN,,0.09,WeatherDisplay:10.37,2013-02-22 13:46:00,
2013-02-22 07:51:00,24.9,24.9,29.78,SE,140,3.5,5.8,100,0.00,-SN,,0.09,WeatherDisplay:10.37,2013-02-22 13:51:00,
2013-02-22 07:56:00,24.9,24.9,29.78,East,98,3.6,4.6,100,0.00,-SN,,0.09,WeatherDisplay:10.37,2013-02-22 13:56:00,
2013-02-22 08:01:00,25.0,25.0,29.78,ESE,110,3.6,5.8,100,0.00,-SN,,0.09,WeatherDisplay:10.37,2013-02-22 14:01:00,
2013-02-22 08:06:00,25.0,25.0,29.78,ESE,108,4.9,8.1,100,0.00,-SN,,0.09,WeatherDisplay:10.37,2013-02-22 14:06:00,
2013-02-22 08:11:00,24.9,24.9,29.78,ESE,122,4.1,6.9,100,0.00,-SN,,0.09,WeatherDisplay:10.37,2013-02-22 14:11:00,
2013-02-22 08:16:00,24.9,24.9,29.79,ESE,123,5.3,6.9,100,0.00,-SN,,0.09,WeatherDisplay:10.37,2013-02-22 14:16:00,
2013-02-22 08:21:00,25.1,25.1,29.79,SE,127,3.1,4.6,100,0.00,-SN,,0.09,WeatherDisplay:10.37,2013-02-22 14:21:00,
2013-02-22 08:26:00,25.1,25.1,29.79,SE,139,2.1,6.3,100,0.00,-SN,,0.09,WeatherDisplay:10.37,2013-02-22 14:26:00,
2013-02-22 08:31:00,25.0,25.0,29.78,SE,130,4.7,8.1,100,0.00,-SN,,0.09,WeatherDisplay:10.37,2013-02-22 14:31:00,
2013-02-22 08:36:00,25.1,25.1,29.78,ENE,58,3.4,6.3,100,0.00,-SN,,0.09,WeatherDisplay:10.37,2013-02-22 14:36:00,
2013-02-22 08:41:00,25.0,25.0,29.78,NE,48,4.6,9.2,100,0.00,-SN,,0.09,WeatherDisplay:10.37,2013-02-22 14:41:00,
2013-02-22 08:46:00,25.3,25.3,29.78,SSE,150,4.1,6.9,100,0.00,-SN,,0.09,WeatherDisplay:10.37,2013-02-22 14:46:00,
2013-02-22 08:51:00,25.3,25.3,29.78,ESE,122,2.7,3.5,100,0.00,-SN,,0.09,WeatherDisplay:10.37,2013-02-22 14:51:00,
2013-02-22 08:56:00,25.2,25.2,29.78,SE,134,3.8,8.1,100,0.00,-SN,,0.09,WeatherDisplay:10.37,2013-02-22 14:56:00,
2013-02-22 09:01:00,25.1,25.1,29.78,East,84,3.6,8.1,100,0.00,-SN,,0.09,WeatherDisplay:10.37,2013-02-22 15:01:00,
2013-02-22 09:06:00,25.2,25.2,29.78,ESE,117,2.6,4.6,100,0.00,-SN,,0.09,WeatherDisplay:10.37,2013-02-22 15:06:00,
2013-02-22 09:11:00,25.6,25.6,29.78,ESE,103,0.0,0.0,100,0.00,-SN,,0.09,WeatherDisplay:10.37,2013-02-22 15:11:00,
2013-02-22 09:16:00,25.6,25.6,29.78,ESE,108,0.0,0.0,100,0.00,-SN,,0.09,WeatherDisplay:10.37,2013-02-22 15:16:00,
2013-02-22 09:21:00,25.4,25.4,29.78,East,100,3.6,4.6,100,0.00,-SN,,0.09,WeatherDisplay:10.37,2013-02-22 15:21:00,
2013-02-22 09:26:00,25.6,25.6,29.78,East,85,1.9,5.0,100,0.01,-SN,,0.10,WeatherDisplay:10.37,2013-02-22 15:26:00,
2013-02-22 09:31:00,25.8,25.8,29.78,SE,139,0.0,0.0,100,0.01,-SN,,0.10,WeatherDisplay:10.37,2013-02-22 15:31:00,
2013-02-22 09:36:00,25.9,25.9,29.78,SE,134,0.4,3.0,100,0.01,-SN,,0.10,WeatherDisplay:10.37,2013-02-22 15:36:00,
2013-02-22 09:41:00,25.9,25.9,29.77,ESE,109,0.5,2.3,100,0.01,-SN,,0.10,WeatherDisplay:10.37,2013-02-22 15:41:00,
2013-02-22 09:46:00,26.0,26.0,29.77,SE,144,0.0,1.9,100,0.01,-SN,,0.10,WeatherDisplay:10.37,2013-02-22 15:46:00,
2013-02-22 09:51:00,26.0,26.0,29.77,ESE,113,0.9,3.5,100,0.01,-SN,,0.10,WeatherDisplay:10.37,2013-02-22 15:51:00,
2013-02-22 09:56:00,26.3,26.3,29.77,ESE,103,1.2,3.5,100,0.01,-SN,,0.10,WeatherDisplay:10.37,2013-02-22 15:56:00,
2013-02-22 10:01:00,26.1,26.1,29.78,SE,141,1.3,4.8,100,0.01,-SN,,0.10,WeatherDisplay:10.37,2013-02-22 16:01:00,
2013-02-22 10:06:00,26.1,26.1,29.78,East,85,0.2,3.5,100,0.01,-SN,,0.10,WeatherDisplay:10.37,2013-02-22 16:06:00,
2013-02-22 10:11:00,26.2,26.2,29.78,ENE,68,0.0,0.0,100,0.02,-SN,,0.11,WeatherDisplay:10.37,2013-02-22 16:11:00,
2013-02-22 10:16:00,26.1,26.1,29.78,SE,132,0.0,0.0,100,0.02,-SN,,0.11,WeatherDisplay:10.37,2013-02-22 16:16:00,
2013-02-22 10:21:00,26.0,26.0,29.78,ESE,119,0.0,0.0,100,0.02,-SN,,0.11,WeatherDisplay:10.37,2013-02-22 16:21:00,
2013-02-22 10:26:00,26.1,26.1,29.78,ESE,119,0.0,0.0,100,0.01,-SN,,0.11,WeatherDisplay:10.37,2013-02-22 16:26:00,
2013-02-22 10:31:00,26.4,26.4,29.78,ESE,119,0.0,0.0,100,0.01,-SN,,0.11,WeatherDisplay:10.37,2013-02-22 16:31:00,
2013-02-22 10:36:00,26.3,26.3,29.79,East,100,0.0,0.0,100,0.01,-SN,,0.11,WeatherDisplay:10.37,2013-02-22 16:36:00,
2013-02-22 10:41:00,26.3,26.3,29.78,SE,129,2.1,4.6,100,0.01,-SN,,0.11,WeatherDisplay:10.37,2013-02-22 16:41:00,
2013-02-22 10:46:00,26.5,26.5,29.78,ENE,64,0.0,0.0,100,0.01,-SN,,0.11,WeatherDisplay:10.37,2013-02-22 16:46:00,
2013-02-22 10:51:00,26.6,26.6,29.78,ENE,64,0.0,0.0,100,0.01,-SN,,0.11,WeatherDisplay:10.37,2013-02-22 16:51:00,
2013-02-22 10:56:00,27.0,27.0,29.79,East,96,0.0,0.0,100,0.02,-SN,,0.12,WeatherDisplay:10.37,2013-02-22 16:56:00,
2013-02-22 11:01:00,27.3,27.3,29.78,SSE,156,1.0,3.5,100,0.02,-SN,,0.12,WeatherDisplay:10.37,2013-02-22 17:01:00,
2013-02-22 11:06:00,27.4,27.4,29.78,SSW,194,0.0,0.0,100,0.02,-SN,,0.12,WeatherDisplay:10.37,2013-02-22 17:06:00,
2013-02-22 11:11:00,27.3,27.3,29.78,East,84,1.6,3.5,100,0.01,-SN,,0.12,WeatherDisplay:10.37,2013-02-22 17:11:00,
2013-02-22 11:16:00,27.1,27.1,29.78,ESE,102,0.0,0.0,100,0.01,-SN,,0.12,WeatherDisplay:10.37,2013-02-22 17:16:00,
2013-02-22 11:21:00,27.3,27.3,29.78,ESE,102,0.0,0.0,100,0.01,-SN,,0.12,WeatherDisplay:10.37,2013-02-22 17:21:00,
2013-02-22 11:26:00,27.1,27.1,29.78,East,79,0.0,0.0,100,0.02,-SN,,0.13,WeatherDisplay:10.37,2013-02-22 17:26:00,
2013-02-22 11:31:00,27.3,27.3,29.78,ENE,68,0.0,0.0,100,0.02,-SN,,0.13,WeatherDisplay:10.37,2013-02-22 17:31:00,
2013-02-22 11:36:00,27.5,27.5,29.77,East,100,0.0,1.1,100,0.02,-SN,,0.13,WeatherDisplay:10.37,2013-02-22 17:36:00,
2013-02-22 11:41:00,27.6,27.6,29.78,East,79,0.0,0.0,100,0.02,-SN,,0.13,WeatherDisplay:10.37,2013-02-22 17:41:00,
2013-02-22 11:46:00,27.7,27.7,29.77,East,100,1.3,3.7,100,0.02,-SN,,0.13,WeatherDisplay:10.37,2013-02-22 17:46:00,
2013-02-22 11:51:00,27.6,27.6,29.77,ENE,67,0.0,0.0,100,0.02,-SN,,0.13,WeatherDisplay:10.37,2013-02-22 17:51:00,
2013-02-22 11:56:00,27.9,27.9,29.77,East,85,0.2,2.4,100,0.01,-SN,,0.13,WeatherDisplay:10.37,2013-02-22 17:56:00,
2013-02-22 12:01:00,28.2,28.2,29.77,ENE,71,0.5,2.3,100,0.01,-SN,,0.13,WeatherDisplay:10.37,2013-02-22 18:01:00,
2013-02-22 12:06:00,28.3,28.3,29.77,ENE,71,0.0,0.0,100,0.01,-SN,,0.13,WeatherDisplay:10.37,2013-02-22 18:06:00,
2013-02-22 12:11:00,28.3,28.3,29.76,ENE,74,0.5,2.3,100,0.01,-SN,,0.13,WeatherDisplay:10.37,2013-02-22 18:11:00,
2013-02-22 12:16:00,28.2,28.2,29.76,East,82,0.5,1.1,100,0.01,-SN,,0.13,WeatherDisplay:10.37,2013-02-22 18:16:00,
2013-02-22 12:21:00,28.2,28.2,29.76,East,88,0.9,4.6,100,0.01,-SN,,0.13,WeatherDisplay:10.37,2013-02-22 18:21:00,
2013-02-22 12:26:00,28.2,28.2,29.76,ENE,57,0.9,4.6,100,0.00,-SN,,0.13,WeatherDisplay:10.37,2013-02-22 18:26:00,
2013-02-22 12:31:00,28.5,28.5,29.75,ESE,112,0.3,2.3,100,0.00,-SN,,0.13,WeatherDisplay:10.37,2013-02-22 18:31:00,
2013-02-22 12:36:00,28.8,28.8,29.75,SE,129,2.7,5.8,100,0.00,-SN,,0.13,WeatherDisplay:10.37,2013-02-22 18:36:00,
2013-02-22 12:41:00,28.5,28.5,29.75,ESE,120,0.9,4.6,100,0.00,-SN,,0.13,WeatherDisplay:10.37,2013-02-22 18:41:00,
2013-02-22 12:46:00,28.7,28.7,29.74,ENE,72,3.3,4.6,100,0.00,-SN,,0.13,WeatherDisplay:10.37,2013-02-22 18:46:00,
2013-02-22 12:51:00,29.2,29.2,29.74,ESE,108,0.8,3.5,100,0.00,-SN,,0.13,WeatherDisplay:10.37,2013-02-22 18:51:00,
2013-02-22 12:56:00,29.3,29.1,29.74,ENE,61,0.7,2.3,99,0.00,-SN,,0.13,WeatherDisplay:10.37,2013-02-22 18:56:00,
2013-02-22 13:01:00,29.2,28.7,29.75,East,81,0.7,2.3,98,0.00,-SN,,0.13,WeatherDisplay:10.37,2013-02-22 19:01:00,
2013-02-22 13:06:00,29.2,29.0,29.75,SE,124,0.9,2.3,99,0.00,-SN,,0.13,WeatherDisplay:10.37,2013-02-22 19:06:00,
2013-02-22 13:11:00,29.0,28.5,29.75,SE,124,0.0,0.0,98,0.00,-SN,,0.13,WeatherDisplay:10.37,2013-02-22 19:11:00,
2013-02-22 13:16:00,29.7,29.7,29.75,SE,124,0.0,0.0,100,0.00,-SN,,0.13,WeatherDisplay:10.37,2013-02-22 19:16:00,
2013-02-22 13:21:00,29.6,29.6,29.75,SSW,204,0.2,2.0,100,0.00,-SN,,0.13,WeatherDisplay:10.37,2013-02-22 19:21:00,
2013-02-22 13:26:00,29.8,29.6,29.75,SSW,196,1.9,4.6,99,0.00,-SN,,0.13,WeatherDisplay:10.37,2013-02-22 19:26:00,
2013-02-22 13:31:00,30.0,29.8,29.75,South,172,0.9,2.3,99,0.00,-SN,,0.13,WeatherDisplay:10.37,2013-02-22 19:31:00,
2013-02-22 13:36:00,29.8,29.6,29.75,WSW,252,0.1,1.1,99,0.00,-SN,,0.13,WeatherDisplay:10.37,2013-02-22 19:36:00,
2013-02-22 13:41:00,29.8,29.6,29.74,WNW,301,0.4,2.7,99,0.00,-SN,,0.13,WeatherDisplay:10.37,2013-02-22 19:41:00,
2013-02-22 13:46:00,29.8,29.6,29.74,WSW,243,3.6,5.8,99,0.00,-SN,,0.13,WeatherDisplay:10.37,2013-02-22 19:46:00,
2013-02-22 13:51:00,29.9,29.4,29.75,South,175,0.0,0.0,98,0.00,-SN,,0.13,WeatherDisplay:10.37,2013-02-22 19:51:00,
2013-02-22 13:56:00,30.0,29.5,29.75,SW,220,2.4,4.6,98,0.00,-SN,,0.13,WeatherDisplay:10.37,2013-02-22 19:56:00,
2013-02-22 14:01:00,30.0,29.3,29.76,South,171,3.8,5.8,97,0.00,-SN,,0.13,WeatherDisplay:10.37,2013-02-22 20:01:00,
2013-02-22 14:06:00,29.7,29.0,29.76,SW,225,4.9,6.9,97,0.00,-SN,,0.13,WeatherDisplay:10.37,2013-02-22 20:06:00,
2013-02-22 14:11:00,29.3,28.3,29.76,SW,218,4.6,6.9,96,0.00,-SN,,0.13,WeatherDisplay:10.37,2013-02-22 20:11:00,
2013-02-22 14:16:00,29.0,28.3,29.76,West,263,4.4,6.9,97,0.00,-SN,,0.13,WeatherDisplay:10.37,2013-02-22 20:16:00,
2013-02-22 14:21:00,28.8,28.1,29.76,SSW,209,5.0,6.9,97,0.00,-SN,,0.13,WeatherDisplay:10.37,2013-02-22 20:21:00,
2013-02-22 14:26:00,28.9,28.2,29.76,WSW,246,3.2,4.6,97,0.00,-SN,,0.13,WeatherDisplay:10.37,2013-02-22 20:26:00,
2013-02-22 14:31:00,28.7,28.0,29.77,SW,230,4.4,5.8,97,0.00,-SN,,0.13,WeatherDisplay:10.37,2013-02-22 20:31:00,
2013-02-22 14:36:00,28.7,28.2,29.77,South,181,1.8,4.6,98,0.00,-SN,,0.13,WeatherDisplay:10.37,2013-02-22 20:36:00,
2013-02-22 14:41:00,28.7,28.2,29.77,SSW,205,5.2,6.9,98,0.00,-SN,,0.13,WeatherDisplay:10.37,2013-02-22 20:41:00,
2013-02-22 14:46:00,28.4,27.7,29.77,SSW,196,4.1,5.8,97,0.00,-SN,,0.13,WeatherDisplay:10.37,2013-02-22 20:46:00,
2013-02-22 14:51:00,28.5,28.0,29.77,SW,219,2.2,4.6,98,0.00,-SN,,0.13,WeatherDisplay:10.37,2013-02-22 20:51:00,
2013-02-22 14:56:00,28.4,27.9,29.77,WNW,294,2.5,4.6,98,0.00,-SN,,0.13,WeatherDisplay:10.37,2013-02-22 20:56:00,
2013-02-22 15:01:00,28.5,28.0,29.77,SW,235,1.9,4.6,98,0.00,-SN,,0.13,WeatherDisplay:10.37,2013-02-22 21:01:00,
2013-02-22 15:06:00,28.7,28.2,29.76,NW,316,0.4,2.9,98,0.00,-SN,,0.13,WeatherDisplay:10.37,2013-02-22 21:06:00,
2013-02-22 15:11:00,28.3,27.8,29.76,West,263,4.5,5.8,98,0.00,-SN,,0.13,WeatherDisplay:10.37,2013-02-22 21:11:00,
2013-02-22 15:16:00,28.3,27.8,29.76,NW,322,1.7,2.3,98,0.00,-SN,,0.13,WeatherDisplay:10.37,2013-02-22 21:16:00,
2013-02-22 15:21:00,28.2,27.7,29.76,WSW,246,1.9,4.6,98,0.00,-SN,,0.13,WeatherDisplay:10.37,2013-02-22 21:21:00,
2013-02-22 15:26:00,28.2,27.7,29.76,SSW,212,3.3,4.6,98,0.00,-SN,,0.13,WeatherDisplay:10.37,2013-02-22 21:26:00,
2013-02-22 15:31:00,28.3,27.8,29.76,WSW,246,3.7,6.9,98,0.00,-SN,,0.13,WeatherDisplay:10.37,2013-02-22 21:31:00,
2013-02-22 15:36:00,28.3,27.8,29.76,WNW,295,0.8,2.3,98,0.00,-SN,,0.13,WeatherDisplay:10.37,2013-02-22 21:36:00,
2013-02-22 15:41:00,28.4,27.9,29.76,WSW,243,2.8,5.8,98,0.00,-SN,,0.13,WeatherDisplay:10.37,2013-02-22 21:41:00,
2013-02-22 15:46:00,28.6,28.1,29.76,SW,223,0.0,0.0,98,0.00,-SN,,0.13,WeatherDisplay:10.37,2013-02-22 21:46:00,
2013-02-22 15:51:00,28.6,28.1,29.76,West,270,1.2,2.3,98,0.00,-SN,,0.13,WeatherDisplay:10.37,2013-02-22 21:51:00,
2013-02-22 15:56:00,28.4,27.9,29.76,WNW,284,3.6,5.8,98,0.00,-SN,,0.13,WeatherDisplay:10.37,2013-02-22 21:56:00,
2013-02-22 16:01:00,28.4,27.9,29.76,South,191,1.0,4.6,98,0.00,-SN,,0.13,WeatherDisplay:10.37,2013-02-22 22:01:00,
2013-02-22 16:06:00,28.4,27.9,29.76,WSW,246,0.0,0.0,98,0.00,-SN,,0.13,WeatherDisplay:10.37,2013-02-22 22:06:00,
2013-02-22 16:11:00,28.3,27.8,29.77,West,276,3.2,5.8,98,0.00,-SN,,0.13,WeatherDisplay:10.37,2013-02-22 22:11:00,
2013-02-22 16:16:00,28.6,28.1,29.77,WSW,247,2.7,4.6,98,0.00,-SN,,0.13,WeatherDisplay:10.37,2013-02-22 22:16:00,
2013-02-22 16:21:00,28.5,28.0,29.77,WSW,240,1.3,3.5,98,0.00,-SN,,0.13,WeatherDisplay:10.37,2013-02-22 22:21:00,
2013-02-22 16:26:00,28.5,28.0,29.77,WNW,292,0.0,2.3,98,0.00,-SN,,0.13,WeatherDisplay:10.37,2013-02-22 22:26:00,
2013-02-22 16:31:00,28.3,27.8,29.77,WNW,294,0.0,0.0,98,0.00,-SN,,0.13,WeatherDisplay:10.37,2013-02-22 22:31:00,
2013-02-22 16:36:00,28.3,27.8,29.77,WSW,256,0.0,0.0,98,0.00,-SN,,0.13,WeatherDisplay:10.37,2013-02-22 22:36:00,
2013-02-22 16:41:00,28.3,27.8,29.77,SSW,206,0.0,0.0,98,0.00,-SN,,0.13,WeatherDisplay:10.37,2013-02-22 22:41:00,
2013-02-22 16:46:00,28.3,27.8,29.77,West,260,0.7,2.3,98,0.00,-SN,,0.13,WeatherDisplay:10.37,2013-02-22 22:46:00,
2013-02-22 16:51:00,28.4,27.9,29.77,WNW,285,0.0,1.6,98,0.00,-SN,,0.13,WeatherDisplay:10.37,2013-02-22 22:51:00,
2013-02-22 16:56:00,28.4,27.9,29.77,SSW,212,0.0,1.1,98,0.00,-SN,,0.13,WeatherDisplay:10.37,2013-02-22 22:56:00,
2013-02-22 17:01:00,28.3,27.8,29.77,SSW,211,1.1,3.5,98,0.00,-SN,,0.13,WeatherDisplay:10.37,2013-02-22 23:01:00,
2013-02-22 17:06:00,28.2,27.7,29.78,SSW,213,2.8,4.6,98,0.00,-SN,,0.13,WeatherDisplay:10.37,2013-02-22 23:06:00,
2013-02-22 17:11:00,28.1,27.6,29.78,SW,232,3.2,5.8,98,0.00,-SN,,0.13,WeatherDisplay:10.37,2013-02-22 23:11:00,
2013-02-22 17:16:00,28.1,27.6,29.78,SW,235,3.1,4.6,98,0.00,-SN,,0.13,WeatherDisplay:10.37,2013-02-22 23:16:00,
2013-02-22 17:21:00,28.1,27.6,29.78,WSW,244,1.7,3.5,98,0.00,-SN,,0.13,WeatherDisplay:10.37,2013-02-22 23:21:00,
2013-02-22 17:26:00,28.1,27.9,29.78,SW,236,1.2,3.5,99,0.00,-SN,,0.13,WeatherDisplay:10.37,2013-02-22 23:26:00,
2013-02-22 17:31:00,28.0,27.3,29.78,NW,309,0.3,2.3,97,0.00,-SN,,0.13,WeatherDisplay:10.37,2013-02-22 23:31:00,
2013-02-22 17:36:00,28.1,27.9,29.78,WNW,291,0.0,0.0,99,0.00,-SN,,0.13,WeatherDisplay:10.37,2013-02-22 23:36:00,
2013-02-22 17:41:00,28.0,27.8,29.79,SW,228,1.8,3.5,99,0.00,-SN,,0.13,WeatherDisplay:10.37,2013-02-22 23:41:00,
2013-02-22 17:46:00,27.9,27.7,29.79,West,260,0.7,3.0,99,0.00,-SN,,0.13,WeatherDisplay:10.37,2013-02-22 23:46:00,
2013-02-22 17:51:00,28.0,27.8,29.79,SSE,168,0.0,0.0,99,0.00,-SN,,0.13,WeatherDisplay:10.37,2013-02-22 23:51:00,
2013-02-22 17:56:00,27.9,27.7,29.79,SW,235,3.1,4.6,99,0.00,-SN,,0.13,WeatherDisplay:10.37,2013-02-22 23:56:00,
2013-02-22 18:01:00,27.8,27.8,29.79,SW,236,0.0,0.0,100,0.00,-SN,,0.13,WeatherDisplay:10.37,2013-02-23 00:01:00,
2013-02-22 18:06:00,27.8,27.8,29.79,West,264,0.8,2.3,100,0.00,-SN,,0.13,WeatherDisplay:10.37,2013-02-23 00:06:00,
2013-02-22 18:11:00,27.8,27.8,29.79,SW,236,0.3,2.2,100,0.00,-SN,,0.13,WeatherDisplay:10.37,2013-02-23 00:11:00,
2013-02-22 18:16:00,27.7,27.7,29.79,WNW,285,1.5,3.5,100,0.00,-SN,,0.13,WeatherDisplay:10.37,2013-02-23 00:16:00,
2013-02-22 18:21:00,27.6,27.6,29.79,SW,232,0.0,0.0,100,0.00,-SN,,0.13,WeatherDisplay:10.37,2013-02-23 00:21:00,
2013-02-22 18:26:00,27.6,27.6,29.79,WSW,254,1.0,3.5,100,0.00,-SN,,0.13,WeatherDisplay:10.37,2013-02-23 00:26:00,
2013-02-22 18:31:00,27.6,27.6,29.79,WNW,295,2.3,5.8,100,0.00,-SN,,0.13,WeatherDisplay:10.37,2013-02-23 00:31:00,
2013-02-22 18:36:00,27.6,27.6,29.79,WSW,254,1.5,2.3,100,0.00,-SN,,0.13,WeatherDisplay:10.37,2013-02-23 00:36:00,
2013-02-22 18:41:00,27.5,27.5,29.79,SW,228,0.1,1.1,100,0.00,-SN,,0.13,WeatherDisplay:10.37,2013-02-23 00:41:00,
2013-02-22 18:46:00,27.5,27.5,29.79,WSW,237,1.0,3.5,100,0.00,-SN,,0.13,WeatherDisplay:10.37,2013-02-23 00:46:00,
2013-02-22 18:51:00,27.4,27.4,29.79,WSW,242,2.7,4.6,100,0.00,-SN,,0.13,WeatherDisplay:10.37,2013-02-23 00:51:00,
2013-02-22 18:56:00,27.3,27.3,29.79,SW,218,1.3,2.3,100,0.00,-SN,,0.13,WeatherDisplay:10.37,2013-02-23 00:56:00,
2013-02-22 19:01:00,27.2,27.2,29.80,SW,218,2.8,4.6,100,0.00,-SN,,0.13,WeatherDisplay:10.37,2013-02-23 01:01:00,
2013-02-22 19:06:00,27.2,27.2,29.80,SSW,206,3.1,4.6,100,0.00,-SN,,0.13,WeatherDisplay:10.37,2013-02-23 01:06:00,
2013-02-22 19:11:00,27.0,27.0,29.80,WSW,256,3.4,4.6,100,0.00,-SN,,0.13,WeatherDisplay:10.37,2013-02-23 01:11:00,
2013-02-22 19:16:00,27.1,27.1,29.80,South,187,2.5,4.6,100,0.00,-SN,,0.13,WeatherDisplay:10.37,2013-02-23 01:16:00,
2013-02-22 19:21:00,27.0,27.0,29.81,West,276,1.4,3.5,100,0.00,-SN,,0.13,WeatherDisplay:10.37,2013-02-23 01:21:00,
2013-02-22 19:26:00,27.0,27.0,29.81,West,261,2.8,4.6,100,0.00,-SN,,0.13,WeatherDisplay:10.37,2013-02-23 01:26:00,
2013-02-22 19:31:00,26.9,26.9,29.81,SSW,209,2.9,4.6,100,0.00,-SN,,0.13,WeatherDisplay:10.37,2013-02-23 01:31:00,
2013-02-22 19:36:00,26.8,26.8,29.81,West,267,4.2,8.1,100,0.00,-SN,,0.13,WeatherDisplay:10.37,2013-02-23 01:36:00,
2013-02-22 19:41:00,26.7,26.7,29.81,SW,219,2.6,6.8,100,0.00,-SN,,0.13,WeatherDisplay:10.37,2013-02-23 01:41:00,
2013-02-22 19:46:00,26.8,26.8,29.81,SW,223,1.9,4.6,100,0.00,-SN,,0.13,WeatherDisplay:10.37,2013-02-23 01:46:00,
2013-02-22 19:51:00,26.6,26.6,29.81,WSW,246,4.7,6.9,100,0.00,-SN,,0.13,WeatherDisplay:10.37,2013-02-23 01:51:00,
2013-02-22 19:56:00,26.6,26.6,29.81,West,263,4.0,6.9,100,0.00,-SN,,0.13,WeatherDisplay:10.37,2013-02-23 01:56:00,
2013-02-22 20:01:00,26.7,26.7,29.81,SW,225,2.5,5.8,100,0.00,-SN,,0.13,WeatherDisplay:10.37,2013-02-23 02:01:00,
2013-02-22 20:06:00,26.6,26.6,29.81,SSE,165,3.5,5.8,100,0.00,-SN,,0.13,WeatherDisplay:10.37,2013-02-23 02:06:00,
2013-02-22 20:11:00,26.6,26.6,29.81,WSW,243,3.9,6.9,100,0.00,-SN,,0.13,WeatherDisplay:10.37,2013-02-23 02:11:00,
2013-02-22 20:16:00,26.8,26.8,29.81,WNW,298,2.7,5.8,100,0.00,-SN,,0.13,WeatherDisplay:10.37,2013-02-23 02:16:00,
2013-02-22 20:21:00,26.9,26.9,29.81,SW,215,3.4,4.6,100,0.00,-SN,,0.13,WeatherDisplay:10.37,2013-02-23 02:21:00,
2013-02-22 20:26:00,26.5,26.5,29.81,NW,307,3.7,5.8,100,0.00,-SN,,0.13,WeatherDisplay:10.37,2013-02-23 02:26:00,
2013-02-22 20:31:00,26.8,26.8,29.81,West,271,3.5,4.6,100,0.00,-SN,,0.13,WeatherDisplay:10.37,2013-02-23 02:31:00,
2013-02-22 20:36:00,26.6,26.6,29.81,West,270,2.0,6.2,100,0.00,-SN,,0.13,WeatherDisplay:10.37,2013-02-23 02:36:00,
2013-02-22 20:41:00,26.7,26.7,29.81,WNW,288,2.2,4.6,100,0.00,-SN,,0.13,WeatherDisplay:10.37,2013-02-23 02:41:00,
2013-02-22 20:46:00,26.7,26.7,29.81,West,271,2.8,5.0,100,0.00,-SN,,0.13,WeatherDisplay:10.37,2013-02-23 02:46:00,
2013-02-22 20:51:00,26.7,26.7,29.82,SSW,205,3.2,4.6,100,0.00,-SN,,0.13,WeatherDisplay:10.37,2013-02-23 02:51:00,
2013-02-22 20:56:00,26.7,26.7,29.82,SSW,194,1.8,4.6,100,0.00,-SN,,0.13,WeatherDisplay:10.37,2013-02-23 02:56:00,
2013-02-22 21:01:00,26.7,26.7,29.82,SSW,212,3.1,4.6,100,0.00,-SN,,0.13,WeatherDisplay:10.37,2013-02-23 03:01:00,
2013-02-22 21:06:00,26.7,26.7,29.82,West,278,2.3,3.5,100,0.00,-SN,,0.13,WeatherDisplay:10.37,2013-02-23 03:06:00,
2013-02-22 21:11:00,26.7,26.7,29.82,West,276,3.4,6.9,100,0.00,-SN,,0.13,WeatherDisplay:10.37,2013-02-23 03:11:00,
2013-02-22 21:16:00,26.6,26.6,29.82,WSW,244,1.7,3.8,100,0.00,-SN,,0.13,WeatherDisplay:10.37,2013-02-23 03:16:00,
2013-02-22 21:21:00,26.5,26.5,29.82,West,278,1.9,3.7,100,0.00,-SN,,0.13,WeatherDisplay:10.37,2013-02-23 03:21:00,
2013-02-22 21:26:00,26.6,26.6,29.82,WNW,294,2.5,4.6,100,0.00,-SN,,0.13,WeatherDisplay:10.37,2013-02-23 03:26:00,
2013-02-22 21:31:00,26.5,26.5,29.82,West,274,4.2,5.8,100,0.00,-SN,,0.13,WeatherDisplay:10.37,2013-02-23 03:31:00,
2013-02-22 21:36:00,26.5,26.5,29.81,West,264,2.8,5.8,100,0.00,-SN,,0.13,WeatherDisplay:10.37,2013-02-23 03:36:00,
2013-02-22 21:41:00,26.5,26.3,29.81,West,260,2.2,3.7,99,0.00,-SN,,0.13,WeatherDisplay:10.37,2013-02-23 03:41:00,
2013-02-22 21:46:00,26.4,25.9,29.81,NNW,336,4.0,6.9,98,0.00,-SN,,0.13,WeatherDisplay:10.37,2013-02-23 03:46:00,
2013-02-22 21:51:00,26.5,26.0,29.81,WNW,295,3.2,5.8,98,0.00,-SN,,0.13,WeatherDisplay:10.37,2013-02-23 03:51:00,
2013-02-22 21:56:00,26.4,25.9,29.81,WNW,285,0.6,3.5,98,0.00,-SN,,0.13,WeatherDisplay:10.37,2013-02-23 03:56:00,
2013-02-22 22:01:00,26.4,25.7,29.81,West,280,2.8,4.6,97,0.00,OVC,,0.13,WeatherDisplay:10.37,2013-02-23 04:01:00,
2013-02-22 22:06:00,26.3,25.6,29.81,WNW,285,5.6,8.1,97,0.00,OVC,,0.13,WeatherDisplay:10.37,2013-02-23 04:06:00,
2013-02-22 22:11:00,26.3,25.3,29.81,West,276,5.0,6.9,96,0.00,OVC,,0.13,WeatherDisplay:10.37,2013-02-23 04:11:00,
2013-02-22 22:16:00,26.2,25.2,29.81,WSW,256,4.1,6.9,96,0.00,OVC,,0.13,WeatherDisplay:10.37,2013-02-23 04:16:00,
2013-02-22 22:21:00,26.4,25.2,29.81,West,267,4.1,6.9,95,0.00,OVC,,0.13,WeatherDisplay:10.37,2013-02-23 04:21:00,
2013-02-22 22:26:00,26.4,25.2,29.81,WSW,256,2.4,3.5,95,0.00,OVC,,0.13,WeatherDisplay:10.37,2013-02-23 04:26:00,
2013-02-22 22:31:00,26.4,25.2,29.81,West,260,3.9,6.9,95,0.00,OVC,,0.13,WeatherDisplay:10.37,2013-02-23 04:31:00,
2013-02-22 22:36:00,26.4,25.2,29.81,SW,226,2.1,4.8,95,0.00,OVC,,0.13,WeatherDisplay:10.37,2013-02-23 04:36:00,
2013-02-22 22:41:00,26.3,25.1,29.81,West,277,2.2,3.5,95,0.00,OVC,,0.13,WeatherDisplay:10.37,2013-02-23 04:41:00,
2013-02-22 22:46:00,26.4,25.2,29.81,West,266,1.9,6.9,95,0.00,OVC,,0.13,WeatherDisplay:10.37,2013-02-23 04:46:00,
2013-02-22 22:51:00,26.4,25.2,29.81,WSW,237,1.9,2.3,95,0.00,OVC,,0.13,WeatherDisplay:10.37,2013-02-23 04:51:00,
2013-02-22 22:56:00,26.2,25.0,29.81,WSW,243,1.9,3.0,95,0.00,OVC,,0.13,WeatherDisplay:10.37,2013-02-23 04:56:00,
2013-02-22 23:00:00,26.2,25.0,29.81,WNW,285,3.4,5.8,95,0.00,OVC,,0.13,WeatherDisplay:10.37,2013-02-23 05:00:00,
2013-02-22 23:05:00,26.1,24.9,29.81,WSW,240,1.9,4.6,95,0.00,OVC,,0.13,WeatherDisplay:10.37,2013-02-23 05:05:00,
2013-02-22 23:10:00,26.0,24.8,29.81,WSW,257,1.2,3.5,95,0.00,OVC,,0.13,WeatherDisplay:10.37,2013-02-23 05:10:00,
2013-02-22 23:15:00,26.0,24.8,29.81,South,181,3.4,5.8,95,0.00,OVC,,0.13,WeatherDisplay:10.37,2013-02-23 05:15:00,
2013-02-22 23:20:00,26.0,24.8,29.81,West,281,3.2,5.8,95,0.00,OVC,,0.13,WeatherDisplay:10.37,2013-02-23 05:20:00,
2013-02-22 23:25:00,26.1,25.1,29.81,WSW,242,3.8,6.9,96,0.00,OVC,,0.13,WeatherDisplay:10.37,2013-02-23 05:25:00,
2013-02-22 23:30:00,25.9,24.9,29.81,West,259,5.0,6.9,96,0.00,OVC,,0.13,WeatherDisplay:10.37,2013-02-23 05:30:00,
2013-02-22 23:35:00,25.9,25.2,29.81,West,271,2.3,4.4,97,0.00,OVC,,0.13,WeatherDisplay:10.37,2013-02-23 05:35:00,
2013-02-22 23:40:00,25.9,25.2,29.81,SW,226,4.2,6.2,97,0.00,OVC,,0.13,WeatherDisplay:10.37,2013-02-23 05:40:00,
2013-02-22 23:45:00,25.8,25.1,29.81,WSW,254,3.1,5.8,97,0.00,OVC,,0.13,WeatherDisplay:10.37,2013-02-23 05:45:00,
2013-02-22 23:50:00,25.8,25.1,29.81,South,185,5.0,5.8,97,0.00,OVC,,0.13,WeatherDisplay:10.37,2013-02-23 05:50:00,
2013-02-22 23:55:00,25.5,25.0,29.81,WSW,253,5.2,6.9,98,0.00,OVC,,0.13,WeatherDisplay:10.37,2013-02-23 05:55:00,